createdAt,value
2018-06-09T00:00:49.259Z,2.63
2018-06-09T00:06:44.030Z,2.86
2018-06-09T00:12:39.049Z,2.78
2018-06-09T00:18:34.015Z,2.87
2018-06-09T00:24:29.067Z,3.2
2018-06-09T00:30:24.061Z,2.96
2018-06-09T00:36:19.124Z,2.95
2018-06-09T00:42:14.045Z,2.91
2018-06-09T00:48:09.092Z,3.23
2018-06-09T00:54:04.090Z,3
2018-06-09T00:59:59.063Z,3.06
2018-06-09T01:05:54.083Z,2.92
2018-06-09T01:11:49.453Z,3.5
2018-06-09T01:17:44.117Z,3.71
2018-06-09T01:23:39.090Z,3.52
2018-06-09T01:29:34.243Z,3
2018-06-09T01:35:29.151Z,3.16
2018-06-09T01:41:24.127Z,3.72
2018-06-09T01:47:19.108Z,3.65
2018-06-09T01:53:14.107Z,4
2018-06-09T01:59:09.147Z,4.04
2018-06-09T02:05:04.285Z,3.33
2018-06-09T02:10:59.178Z,3.19
2018-06-09T02:16:54.134Z,3.88
2018-06-09T02:22:49.160Z,3.39
2018-06-09T02:28:44.186Z,4.29
2018-06-09T02:34:39.167Z,3.72
2018-06-09T02:40:34.159Z,3.45
2018-06-09T02:46:29.230Z,3.96
2018-06-09T02:52:24.164Z,3.9
2018-06-09T02:58:19.192Z,3.57
2018-06-09T03:04:14.223Z,3.28
2018-06-09T03:10:09.406Z,3.51
2018-06-09T03:16:04.180Z,3.46
2018-06-09T03:21:59.256Z,2.86
2018-06-09T03:27:54.215Z,3.43
2018-06-09T03:33:49.225Z,3.22
2018-06-09T03:39:44.245Z,3.75
2018-06-09T03:45:39.257Z,3.44
2018-06-09T03:51:34.264Z,3.26
2018-06-09T03:57:29.271Z,2.81
2018-06-09T04:03:24.228Z,3.4
2018-06-09T04:09:19.244Z,3.24
2018-06-09T04:15:14.273Z,3.18
2018-06-09T04:21:10.313Z,2.9
2018-06-09T04:27:04.280Z,4.3
2018-06-09T04:32:59.298Z,3.06
2018-06-09T04:38:54.273Z,3.21
2018-06-09T04:44:49.307Z,2.85
2018-06-09T04:50:57.439Z,3.2
2018-06-09T04:56:39.330Z,2.79
2018-06-09T05:02:34.274Z,3.55
2018-06-09T05:08:29.336Z,3.71
2018-06-09T05:14:24.323Z,3.53
2018-06-09T05:20:19.359Z,3.43
2018-06-09T05:26:14.359Z,3.37
2018-06-09T05:32:09.394Z,3.42
2018-06-09T05:38:04.350Z,4
2018-06-09T05:43:59.335Z,3.43
2018-06-09T05:49:54.365Z,3.94
2018-06-09T05:55:49.374Z,3.98
2018-06-09T06:01:44.356Z,3.38
2018-06-09T06:07:39.339Z,4.42
2018-06-09T06:13:34.358Z,3.67
2018-06-09T06:19:29.367Z,3.6
2018-06-09T06:25:24.435Z,3.16
2018-06-09T06:31:19.375Z,3.46
2018-06-09T06:37:14.404Z,3.82
2018-06-09T06:43:09.389Z,3.72
2018-06-09T06:49:04.416Z,3.46
2018-06-09T06:54:59.447Z,3.76
2018-06-09T07:00:54.452Z,3.58
2018-06-09T07:06:49.467Z,3.86
2018-06-09T07:12:44.437Z,4
2018-06-09T07:18:39.466Z,3.54
2018-06-09T07:24:34.414Z,3.49
2018-06-09T07:30:29.478Z,3.92
2018-06-09T07:36:24.457Z,3.74
2018-06-09T07:42:19.517Z,4.36
2018-06-09T07:48:14.504Z,3.73
2018-06-09T07:54:09.597Z,3.77
2018-06-09T08:00:04.464Z,4.07
2018-06-09T08:05:59.510Z,4.75
2018-06-09T08:11:54.473Z,3.35
2018-06-09T08:17:49.496Z,3.24
2018-06-09T08:23:44.540Z,3.33
2018-06-09T08:29:39.499Z,2.92
2018-06-09T08:35:34.503Z,3.11
2018-06-09T08:41:29.510Z,2.9
2018-06-09T08:47:24.553Z,2.86
2018-06-09T08:53:19.524Z,2.8
2018-06-09T08:59:14.555Z,2.38
2018-06-09T09:05:09.544Z,2.72
2018-06-09T09:11:04.519Z,2.38
2018-06-09T09:16:59.530Z,2.7
2018-06-09T09:22:54.573Z,2.73
2018-06-09T09:28:49.548Z,3.95
2018-06-09T09:34:44.576Z,3.71
2018-06-09T09:40:39.564Z,3.43
2018-06-09T09:46:34.606Z,3.2
2018-06-09T09:52:29.592Z,3.67
2018-06-09T09:58:24.579Z,4.03
2018-06-09T10:04:19.551Z,3.85
2018-06-09T10:10:14.599Z,3.81
2018-06-09T10:16:09.591Z,3.33
2018-06-09T10:22:04.623Z,3.63
2018-06-09T10:27:59.604Z,3.62
2018-06-09T10:33:54.627Z,3.4
2018-06-09T10:39:49.652Z,2.95
2018-06-09T10:45:44.630Z,3.26
2018-06-09T10:51:39.691Z,3.46
2018-06-09T10:57:34.732Z,3.57
2018-06-09T11:03:29.630Z,3.36
2018-06-09T11:09:24.645Z,2.75
2018-06-09T11:15:19.671Z,2.9
2018-06-09T11:21:14.665Z,3.07
2018-06-09T11:27:09.859Z,2.79
2018-06-09T11:33:04.702Z,2.67
2018-06-09T11:38:59.751Z,2.64
2018-06-09T11:44:54.670Z,2.71
2018-06-09T11:50:49.777Z,2.67
2018-06-09T11:56:44.707Z,2.68
2018-06-09T12:02:39.704Z,2.85
2018-06-09T12:08:34.761Z,2.46
2018-06-09T12:14:29.898Z,2.45
2018-06-09T12:20:25.235Z,2.42
2018-06-09T12:26:19.836Z,2.15
2018-06-09T12:32:14.768Z,2.49
2018-06-09T12:38:09.853Z,2.14
2018-06-09T12:44:04.790Z,2.77
2018-06-09T12:49:59.749Z,2.03
2018-06-09T12:55:54.804Z,2.46
2018-06-09T13:01:49.885Z,2.51
2018-06-09T13:07:44.751Z,2.09
2018-06-09T13:13:39.776Z,2.13
2018-06-09T13:19:34.841Z,2.5
2018-06-09T13:25:29.814Z,2.12
2018-06-09T13:31:24.860Z,1.92
2018-06-09T13:37:19.813Z,1.92
2018-06-09T13:43:14.770Z,2.17
2018-06-09T13:49:09.876Z,1.92
2018-06-09T13:55:04.852Z,1.99
2018-06-09T14:00:59.819Z,2.28
2018-06-09T14:06:54.996Z,1.97
2018-06-09T14:12:49.847Z,2.38
2018-06-09T14:18:44.816Z,1.97
2018-06-09T14:24:39.857Z,1.89
2018-06-09T14:30:34.883Z,2.08
2018-06-09T14:36:29.945Z,1.6
2018-06-09T14:42:24.858Z,1.84
2018-06-09T14:48:19.899Z,2.11
2018-06-09T14:54:14.914Z,1.99
2018-06-09T15:00:09.854Z,1.77
2018-06-09T15:06:06.109Z,2
2018-06-09T15:11:59.878Z,1.82
2018-06-09T15:17:54.864Z,2.1
2018-06-09T15:23:50.294Z,2.25
2018-06-09T15:29:44.920Z,1.88
2018-06-09T15:35:39.913Z,1.66
2018-06-09T15:41:34.957Z,1.78
2018-06-09T15:47:29.911Z,1.87
2018-06-09T15:53:24.981Z,3.01
2018-06-09T15:59:19.965Z,2.05
2018-06-09T16:05:14.945Z,2.38
2018-06-09T16:11:09.964Z,3.07
2018-06-09T16:17:05.035Z,2.47
2018-06-09T16:22:59.988Z,1.94
2018-06-09T16:28:54.956Z,1.9
2018-06-09T16:34:50.323Z,1.81
2018-06-09T16:40:44.973Z,2.03
2018-06-09T16:46:40.017Z,1.81
2018-06-09T16:52:34.963Z,1.63
2018-06-09T16:58:29.953Z,2.02
2018-06-09T17:04:25.053Z,1.83
2018-06-09T17:10:19.991Z,1.92
2018-06-09T17:16:15.026Z,2.44
2018-06-09T17:22:10.003Z,2.14
2018-06-09T17:28:05.022Z,2.27
2018-06-09T17:34:00.048Z,2.64
2018-06-09T17:39:55.016Z,3.54
2018-06-09T17:45:50.011Z,3.05
2018-06-09T17:51:45.054Z,2.7
2018-06-09T17:57:40.041Z,2.71
2018-06-09T18:03:35.025Z,3.02
2018-06-09T18:09:30.027Z,2.57
2018-06-09T18:15:25.094Z,3.26
2018-06-09T18:21:20.049Z,3.42
2018-06-09T18:27:15.076Z,3.24
2018-06-09T18:33:10.063Z,2.7
2018-06-09T18:39:05.080Z,2.3
2018-06-09T18:45:00.096Z,3.27
2018-06-09T18:50:55.080Z,3.51
2018-06-09T18:56:50.201Z,3.46
2018-06-09T19:02:45.131Z,2.68
2018-06-09T19:08:40.123Z,2.83
2018-06-09T19:14:35.128Z,3.51
2018-06-09T19:20:30.120Z,2.43
2018-06-09T19:26:25.140Z,2.35
2018-06-09T19:32:20.180Z,2.96
2018-06-09T19:38:15.160Z,2.97
2018-06-09T19:44:10.125Z,3.81
2018-06-09T19:50:05.317Z,2.83
2018-06-09T19:56:00.215Z,2.43
2018-06-09T20:01:55.199Z,3.97
2018-06-09T20:07:50.143Z,3.02
2018-06-09T20:13:45.230Z,3.23
2018-06-09T20:19:40.183Z,3.41
2018-06-09T20:31:30.173Z,3.01
2018-06-09T20:37:26.445Z,2.54
2018-06-09T20:43:20.230Z,3.44
2018-06-09T20:49:15.225Z,3.96
2018-06-09T20:55:10.230Z,4.91
2018-06-09T21:01:05.261Z,4.15
2018-06-09T21:07:00.232Z,2.94
2018-06-09T21:13:39.993Z,5.53
2018-06-09T21:18:50.207Z,3.48
2018-06-09T21:24:45.220Z,4.39
2018-06-09T21:30:40.224Z,2.9
2018-06-09T21:36:35.247Z,3.02
2018-06-09T21:42:30.237Z,4.02
2018-06-09T21:48:25.309Z,3.87
2018-06-09T21:54:20.314Z,3.88
2018-06-09T22:00:15.246Z,3.41
2018-06-09T22:06:10.294Z,3.37
2018-06-09T22:12:05.277Z,3.22
2018-06-09T22:18:00.343Z,4.71
2018-06-09T22:23:55.290Z,4.11
2018-06-09T22:29:51.549Z,3.58
2018-06-09T22:35:45.355Z,4.1
2018-06-09T22:41:40.354Z,3.72
2018-06-09T22:47:35.330Z,3.28
2018-06-09T22:53:30.335Z,3.42
2018-06-09T22:59:25.348Z,3.25
2018-06-09T23:05:20.360Z,3.62
2018-06-09T23:11:15.337Z,3.09
2018-06-09T23:17:10.387Z,3.26
2018-06-09T23:23:05.401Z,2.69
2018-06-09T23:29:00.425Z,3.2
2018-06-09T23:34:55.411Z,3.2
2018-06-09T23:40:50.370Z,2.92
2018-06-09T23:46:45.442Z,2.98
2018-06-09T23:52:40.467Z,2.93
2018-06-09T23:58:35.393Z,3.04
